Time;durP1;ratioP1;P1;durP2;ratioP2;P2;SDS_P1;SDS_P2;PMS_P1;PMS_P2;Temp;Humidity;BMP_temperature;BMP_pressure;BME280_temperature;BME280_humidity;BME280_pressure;Samples;Min_cycle;Max_cycle;Signal;HPM_P1;HPM_P2
2022/08/29 00:01:31;;;;;;;15.82;6.38;;;;;;;13.54;98.86;98650.25;5083470;28;20070;-66
2022/08/29 00:03:57;;;;;;;15.02;7.50;;;;;;;13.57;98.44;98652.81;5083573;28;20055;-66
2022/08/29 00:06:22;;;;;;;12.88;6.78;;;;;;;13.48;97.95;98647.78;5083399;28;20036;-66
2022/08/29 00:08:48;;;;;;;10.82;6.57;;;;;;;13.42;97.55;98648.84;5083307;28;20102;-66
2022/08/29 00:11:14;;;;;;;14.02;6.68;;;;;;;13.53;97.17;98656.44;5083366;28;20323;-66
2022/08/29 00:13:39;;;;;;;11.35;7.22;;;;;;;13.42;96.93;98655.91;5083305;28;20043;-66
2022/08/29 00:16:05;;;;;;;15.82;7.13;;;;;;;13.35;98.03;98649.91;5087093;28;20024;-66
2022/08/29 00:18:31;;;;;;;12.27;7.00;;;;;;;13.34;98.03;98642.03;5087236;28;20039;-66
2022/08/29 00:20:57;;;;;;;16.95;7.32;;;;;;;13.41;98.18;98640.97;5087039;28;20021;-66
2022/08/29 00:23:22;;;;;;;15.45;6.93;;;;;;;13.41;98.17;98647.09;5087050;28;20025;-66
2022/08/29 00:25:47;;;;;;;13.95;6.70;;;;;;;13.53;96.79;98651.13;5086987;28;20020;-66
2022/08/29 00:28:13;;;;;;;10.63;6.85;;;;;;;13.47;96.12;98646.03;5086962;28;20024;-66
2022/08/29 00:30:39;;;;;;;13.07;6.70;;;;;;;13.29;96.49;98644.81;5086359;28;20029;-66
2022/08/29 00:33:05;;;;;;;16.63;5.75;;;;;;;13.44;96.50;98646.16;5086808;28;20338;-66
2022/08/29 00:35:34;;;;;;;16.98;6.40;;;;;;;13.61;94.05;98649.13;5086826;28;20028;-66
2022/08/29 00:38:00;;;;;;;16.80;6.13;;;;;;;13.61;93.30;98649.13;5086694;28;20347;-66
2022/08/29 00:40:31;;;;;;;16.48;6.43;;;;;;;13.54;94.23;98647.59;5086742;28;20020;-66
2022/08/29 00:42:57;;;;;;;15.07;6.00;;;;;;;13.51;93.77;98643.25;5086706;28;20027;-66
2022/08/29 00:45:23;;;;;;;11.88;6.38;;;;;;;13.34;93.62;98644.69;5086460;28;20103;-66
2022/08/29 00:47:57;;;;;;;11.27;5.03;;;;;;;13.31;94.29;98639.47;5086586;28;20327;-66
2022/08/29 00:50:30;;;;;;;11.05;5.90;;;;;;;13.37;94.23;98644.59;5086551;28;20020;-66
2022/08/29 00:52:58;;;;;;;11.32;5.60;;;;;;;13.40;94.18;98644.50;5086784;28;20249;-66
2022/08/29 00:55:26;;;;;;;15.65;6.32;;;;;;;13.42;93.60;98647.97;5086733;28;20020;-66
2022/08/29 00:58:05;;;;;;;12.35;5.45;;;;;;;13.41;93.95;98659.47;5084929;28;20028;-66
2022/08/29 01:00:31;;;;;;;10.77;4.40;;;;;;;13.48;92.68;98659.22;5086240;28;20021;-66
2022/08/29 01:02:56;;;;;;;12.73;5.55;;;;;;;13.54;92.32;98661.66;5085975;28;20021;-66
2022/08/29 01:05:23;;;;;;;11.48;5.00;;;;;;;13.55;91.81;98659.91;5086282;28;20090;-66
2022/08/29 01:07:49;;;;;;;11.25;6.22;;;;;;;13.48;91.62;98653.91;5086275;28;20404;-66
2022/08/29 01:12:14;;;;;;;12.75;5.53;;;;;;;13.50;91.31;98667.09;5086002;28;20032;-66
2022/08/29 01:13:03;;;;;;;15.63;5.57;;;;;;;13.36;92.39;98669.31;5086098;28;20258;-66
2022/08/29 01:15:30;;;;;;;14.30;5.22;;;;;;;13.23;92.94;98668.81;5086111;28;20028;-66
2022/08/29 01:17:57;;;;;;;9.35;4.63;;;;;;;13.23;93.04;98673.22;5086050;28;20024;-66
2022/08/29 01:20:41;;;;;;;9.35;5.00;;;;;;;13.27;93.24;98666.94;5085805;28;20028;-66
2022/08/29 01:23:25;;;;;;;15.32;5.22;;;;;;;13.17;92.63;98674.28;5085802;28;20028;-66
2022/08/29 01:25:51;;;;;;;11.07;4.93;;;;;;;13.24;92.58;98677.59;5085342;28;20027;-66
2022/08/29 01:28:22;;;;;;;14.80;5.32;;;;;;;13.26;92.49;98684.59;5086207;28;20020;-66
2022/08/29 01:31:02;;;;;;;9.93;4.80;;;;;;;13.16;92.92;98676.97;5085685;28;20091;-66
2022/08/29 01:33:43;;;;;;;15.27;4.63;;;;;;;13.11;93.37;98678.84;5085740;28;20043;-66
2022/08/29 01:36:11;;;;;;;7.47;4.53;;;;;;;13.13;93.29;98682.34;5085731;28;20023;-66
2022/08/29 01:38:38;;;;;;;9.30;4.50;;;;;;;13.27;91.73;98674.84;5085451;28;20082;-66
2022/08/29 01:41:05;;;;;;;8.43;4.93;;;;;;;13.11;92.99;98676.22;5085379;28;20324;-66
2022/08/29 01:43:36;;;;;;;15.68;5.13;;;;;;;12.97;93.72;98672.16;5085684;28;20024;-66
2022/08/29 01:46:02;;;;;;;15.80;5.45;;;;;;;12.97;94.42;98682.72;5085493;28;20027;-66
2022/08/29 01:48:27;;;;;;;15.50;5.10;;;;;;;12.90;94.32;98675.88;5085440;28;20032;-66
2022/08/29 01:50:52;;;;;;;15.70;5.28;;;;;;;12.73;95.04;98678.13;5085330;28;20020;-66
2022/08/29 01:53:18;;;;;;;14.82;5.10;;;;;;;12.78;95.49;98681.50;5085124;28;20095;-66
2022/08/29 01:55:43;;;;;;;12.02;5.22;;;;;;;12.79;95.56;98680.56;5085318;28;20215;-66
2022/08/29 01:58:09;;;;;;;8.93;4.75;;;;;;;12.76;95.21;98683.31;5085018;28;20276;-66
2022/08/29 02:00:35;;;;;;;8.98;4.53;;;;;;;12.78;95.22;98685.91;5085352;28;20027;-66
2022/08/29 02:03:02;;;;;;;12.85;4.80;;;;;;;12.74;95.05;98685.13;5085148;28;20320;-66
2022/08/29 02:05:28;;;;;;;12.30;4.53;;;;;;;12.76;94.94;98683.31;5085083;28;20312;-66
2022/08/29 02:07:55;;;;;;;11.43;4.68;;;;;;;12.76;95.33;98683.31;5084959;28;20016;-66
2022/08/29 02:10:21;;;;;;;9.95;4.40;;;;;;;12.71;95.10;98679.94;5084544;28;20044;-66
2022/08/29 02:12:47;;;;;;;13.35;4.97;;;;;;;12.66;94.92;98687.09;5085052;28;20051;-66
2022/08/29 02:15:12;;;;;;;8.52;4.55;;;;;;;12.56;95.11;98676.84;5084927;28;20324;-66
2022/08/29 02:17:38;;;;;;;11.70;3.90;;;;;;;12.55;96.11;98680.38;5084910;28;20032;-66
2022/08/29 02:20:07;;;;;;;10.13;3.95;;;;;;;12.56;96.10;98680.34;5084557;28;20086;-66
2022/08/29 02:22:34;;;;;;;10.38;4.18;;;;;;;12.61;95.92;98683.75;5084251;28;20263;-66
2022/08/29 02:25:01;;;;;;;13.43;4.40;;;;;;;12.60;95.70;98681.97;5084665;28;20091;-66
2022/08/29 02:27:26;;;;;;;12.20;4.97;;;;;;;12.66;95.63;98680.97;5084705;28;20268;-66
2022/08/29 02:29:51;;;;;;;13.85;4.38;;;;;;;12.64;95.26;98682.78;5084557;28;20024;-66
2022/08/29 02:32:17;;;;;;;14.02;4.20;;;;;;;12.62;95.33;98685.47;5084532;28;20016;-66
2022/08/29 02:34:44;;;;;;;11.65;3.90;;;;;;;12.59;95.47;98689.94;5084492;28;20021;-66
2022/08/29 02:37:09;;;;;;;12.98;4.45;;;;;;;12.56;95.36;98684.78;5084489;28;20048;-66
2022/08/29 02:39:34;;;;;;;13.55;4.72;;;;;;;12.59;95.16;98680.25;5083871;28;20211;-66
2022/08/29 02:42:00;;;;;;;15.38;5.35;;;;;;;12.53;94.71;98683.06;5084317;28;20024;-66
2022/08/29 02:44:26;;;;;;;8.38;3.67;;;;;;;12.55;94.23;98678.63;5084799;28;20020;-66
2022/08/29 02:46:51;;;;;;;7.88;3.60;;;;;;;12.59;94.32;98685.53;5084427;28;20250;-66
2022/08/29 02:49:16;;;;;;;12.32;4.35;;;;;;;12.62;93.96;98685.47;5084396;28;20332;-66
2022/08/29 02:51:42;;;;;;;12.25;3.80;;;;;;;12.58;94.51;98683.81;5084264;28;20050;-66
2022/08/29 02:54:08;;;;;;;9.88;3.90;;;;;;;12.63;94.70;98686.34;5084526;28;20031;-66
2022/08/29 02:56:33;;;;;;;11.45;4.35;;;;;;;12.63;94.75;98691.63;5084485;28;20331;-66
2022/08/29 02:58:59;;;;;;;17.48;4.47;;;;;;;12.57;94.26;98686.50;5084243;28;20020;-66
2022/08/29 03:01:25;;;;;;;7.93;3.72;;;;;;;12.56;93.58;98690.06;5083826;28;20070;-66
2022/08/29 03:03:51;;;;;;;7.13;3.30;;;;;;;12.58;93.35;98688.22;5084176;28;20342;-66
2022/08/29 03:06:18;;;;;;;8.95;3.38;;;;;;;12.56;93.53;98690.06;5084162;28;20078;-66
2022/08/29 03:08:44;;;;;;;9.13;3.40;;;;;;;12.44;93.67;98675.38;5083975;28;20044;-66
2022/08/29 03:11:09;;;;;;;18.33;4.15;;;;;;;12.35;94.47;98680.91;5083975;28;20024;-66
2022/08/29 03:13:35;;;;;;;7.25;3.22;;;;;;;12.39;94.92;98677.28;5084008;28;20027;-66
2022/08/29 03:16:02;;;;;;;10.57;3.63;;;;;;;12.44;94.83;98680.66;5083998;28;20020;-66
2022/08/29 03:18:28;;;;;;;11.40;3.38;;;;;;;12.36;94.66;98682.63;5083862;28;20223;-66
2022/08/29 03:20:54;;;;;;;9.73;3.90;;;;;;;12.34;95.01;98683.59;5083956;28;20219;-66
2022/08/29 03:23:19;;;;;;;8.57;3.67;;;;;;;12.26;95.16;98675.88;5083974;28;20032;-66
2022/08/29 03:25:45;;;;;;;11.73;3.63;;;;;;;12.17;95.29;98670.81;5084007;28;20024;-66
2022/08/29 03:28:10;;;;;;;8.98;4.00;;;;;;;12.16;96.07;98678.78;5083896;28;20020;-66
2022/08/29 03:30:35;;;;;;;10.38;3.75;;;;;;;12.10;96.56;98674.53;5083600;28;20020;-66
2022/08/29 03:33:02;;;;;;;9.45;3.50;;;;;;;12.11;96.41;98676.25;5083857;28;20231;-66
2022/08/29 03:35:28;;;;;;;8.10;3.78;;;;;;;12.09;96.47;98671.91;5083855;28;20097;-66
2022/08/29 03:37:54;;;;;;;16.75;4.65;;;;;;;12.10;96.53;98669.25;5083807;28;20316;-66
2022/08/29 03:40:19;;;;;;;36.42;4.88;;;;;;;12.03;96.48;98667.66;5083739;28;20024;-66
2022/08/29 03:42:45;;;;;;;26.25;4.65;;;;;;;12.07;96.54;98669.31;5083769;28;20020;-66
2022/08/29 03:45:14;;;;;;;11.13;4.40;;;;;;;12.04;96.87;98669.38;5083837;28;20020;-66
2022/08/29 03:47:40;;;;;;;19.88;4.80;;;;;;;11.96;96.91;98673.97;5084000;28;20078;-66
2022/08/29 03:50:07;;;;;;;18.30;5.45;;;;;;;11.90;96.67;98676.75;5085704;28;20035;-66
2022/08/29 03:52:32;;;;;;;12.38;3.65;;;;;;;11.85;97.34;98673.38;5087374;28;20028;-66
2022/08/29 03:54:58;;;;;;;15.70;4.32;;;;;;;11.92;97.20;98669.69;5087902;28;20312;-66
2022/08/29 03:57:24;;;;;;;10.00;3.88;;;;;;;11.88;97.15;98668.03;5087571;28;20027;-66
2022/08/29 03:59:49;;;;;;;13.00;4.20;;;;;;;11.84;97.23;98671.66;5087536;28;20020;-66
2022/08/29 04:02:17;;;;;;;13.15;4.20;;;;;;;11.73;97.41;98668.38;5087500;28;20394;-66
2022/08/29 04:07:27;;;;;;;11.88;4.22;;;;;;;11.65;98.72;98670.34;5087186;28;20074;-68
2022/08/29 04:09:52;;;;;;;12.05;4.57;;;;;;;11.63;98.51;98666.88;5087069;28;20111;-68
2022/08/29 04:12:17;;;;;;;14.27;4.40;;;;;;;11.62;99.16;98665.16;5087251;28;20343;-68
2022/08/29 04:14:43;;;;;;;16.35;4.47;;;;;;;11.64;99.12;98665.94;5087289;28;20028;-68
2022/08/29 04:17:09;;;;;;;10.93;4.25;;;;;;;11.61;99.13;98670.41;5087417;28;20024;-68
2022/08/29 04:19:36;;;;;;;13.23;4.20;;;;;;;11.58;99.00;98668.69;5087346;28;20342;-68
2022/08/29 04:22:03;;;;;;;11.43;4.28;;;;;;;11.52;98.74;98673.25;5087084;28;20280;-68
2022/08/29 04:24:33;;;;;;;10.10;3.42;;;;;;;11.38;98.82;98665.66;5087051;28;20025;-68
2022/08/29 04:26:58;;;;;;;12.50;4.05;;;;;;;11.32;99.92;98681.59;5086989;28;20024;-68
2022/08/29 04:29:24;;;;;;;17.67;5.68;;;;;;;11.32;100.00;98686.84;5086975;28;20043;-68
2022/08/29 04:31:50;;;;;;;12.43;4.55;;;;;;;11.34;100.00;98685.06;5087192;28;20029;-68
2022/08/29 04:34:16;;;;;;;11.75;3.92;;;;;;;11.34;100.00;98685.06;5086916;28;20029;-68
2022/08/29 04:36:44;;;;;;;14.60;4.75;;;;;;;11.23;100.00;98689.69;5086924;28;20017;-68
2022/08/29 04:39:09;;;;;;;10.52;4.30;;;;;;;11.22;100.00;98690.59;5086835;28;20324;-68
2022/08/29 04:41:36;;;;;;;11.50;4.72;;;;;;;11.18;100.00;98688.94;5086756;28;20036;-68
2022/08/29 04:44:03;;;;;;;12.80;4.85;;;;;;;11.20;100.00;98691.53;5086626;28;20048;-68
2022/08/29 04:46:29;;;;;;;13.43;4.80;;;;;;;11.22;100.00;98690.59;5086928;28;20020;-68
2022/08/29 04:48:54;;;;;;;10.15;4.82;;;;;;;11.24;100.00;98694.06;5086604;28;20020;-68
2022/08/29 04:51:20;;;;;;;9.88;5.03;;;;;;;11.26;100.00;98691.41;5086528;28;20024;-68
2022/08/29 04:53:47;;;;;;;13.48;4.75;;;;;;;11.24;100.00;98694.06;5086525;28;20039;-68
2022/08/29 04:56:12;;;;;;;12.57;4.45;;;;;;;11.27;100.00;98694.00;5086502;28;20024;-68
2022/08/29 04:58:42;;;;;;;9.00;4.60;;;;;;;11.25;100.00;98690.53;5086426;28;20208;-68
2022/08/29 05:01:12;;;;;;;14.15;5.10;;;;;;;11.21;100.00;98694.13;5085371;28;20080;-68
2022/08/29 05:03:37;;;;;;;11.55;4.25;;;;;;;11.22;100.00;98695.84;5086356;28;20054;-68
2022/08/29 05:06:07;;;;;;;9.85;4.55;;;;;;;11.17;100.00;98695.06;5086298;28;20024;-68
2022/08/29 05:08:34;;;;;;;8.57;5.00;;;;;;;11.18;100.00;98698.59;5086303;28;20025;-68
2022/08/29 05:11:00;;;;;;;11.65;4.93;;;;;;;11.20;100.00;98708.19;5086073;28;20351;-68
2022/08/29 05:13:26;;;;;;;9.77;4.75;;;;;;;11.27;100.00;98704.56;5086185;28;20020;-68
2022/08/29 05:15:52;;;;;;;12.27;4.32;;;;;;;11.39;100.00;98709.53;5086118;28;20019;-68
2022/08/29 05:18:17;;;;;;;13.10;4.40;;;;;;;11.49;99.92;98707.59;5086127;28;20028;-68
2022/08/29 05:20:45;;;;;;;8.65;4.28;;;;;;;11.55;99.52;98710.94;5086081;28;20040;-68
2022/08/29 05:23:11;;;;;;;12.85;4.88;;;;;;;11.60;99.61;98713.47;5086053;28;20051;-68
2022/08/29 05:25:37;;;;;;;13.57;4.78;;;;;;;11.68;98.84;98701.88;5085928;28;20032;-68
2022/08/29 05:28:03;;;;;;;18.23;4.45;;;;;;;11.90;98.22;98697.84;5085835;28;20315;-68
2022/08/29 05:30:30;;;;;;;10.65;4.28;;;;;;;12.36;95.47;98709.03;5085742;28;20067;-68
2022/08/29 05:32:56;;;;;;;11.38;3.47;;;;;;;12.96;92.38;98717.09;5085783;28;20031;-68
2022/08/29 05:35:21;;;;;;;9.15;3.42;;;;;;;13.72;88.87;98721.06;5085738;28;20028;-68
2022/08/29 05:37:47;;;;;;;10.38;3.70;;;;;;;14.46;85.40;98727.53;5085614;28;20048;-68
2022/08/29 05:40:12;;;;;;;7.97;3.45;;;;;;;15.00;83.20;98729.16;5085894;28;20044;-68
2022/08/29 05:42:38;;;;;;;8.10;3.08;;;;;;;15.15;81.21;98722.44;5085629;28;20212;-68
2022/08/29 05:45:04;;;;;;;12.45;4.15;;;;;;;15.32;79.60;98722.69;5085530;28;20023;-68
2022/08/29 05:47:30;;;;;;;14.55;3.60;;;;;;;15.41;78.80;98722.38;5085463;28;20087;-68
2022/08/29 05:49:56;;;;;;;10.50;3.10;;;;;;;14.73;80.65;98721.28;5085372;28;20024;-68
2022/08/29 05:52:22;;;;;;;9.35;3.80;;;;;;;14.10;83.29;98713.69;5085342;28;20030;-68
2022/08/29 05:54:47;;;;;;;8.60;4.05;;;;;;;13.88;85.69;98722.34;5085586;28;20024;-68
2022/08/29 05:57:15;;;;;;;9.82;3.55;;;;;;;13.81;86.64;98715.50;5085393;28;20227;-68
2022/08/29 05:59:40;;;;;;;7.18;3.47;;;;;;;13.92;87.36;98716.06;5085227;28;20027;-68
2022/08/29 06:02:07;;;;;;;13.20;3.53;;;;;;;15.27;83.55;98729.94;5085410;28;20087;-68
2022/08/29 06:04:33;;;;;;;14.95;4.68;;;;;;;16.26;79.56;98730.56;5085120;28;20020;-68
2022/08/29 06:06:58;;;;;;;7.78;3.25;;;;;;;17.19;75.13;98722.06;5085112;28;20054;-68
2022/08/29 06:09:24;;;;;;;10.75;3.97;;;;;;;18.36;72.00;98730.81;5084938;28;20037;-68
2022/08/29 06:11:56;;;;;;;8.20;3.83;;;;;;;19.13;69.01;98725.06;5084749;28;20235;-68
2022/08/29 06:14:22;;;;;;;12.35;3.38;;;;;;;19.67;66.99;98727.53;5084927;28;20087;-68
2022/08/29 06:16:47;;;;;;;6.53;2.92;;;;;;;20.26;64.67;98722.44;5084873;28;20050;-68
2022/08/29 06:19:13;;;;;;;10.02;3.45;;;;;;;20.54;62.75;98722.56;5085100;28;20393;-68
2022/08/29 06:21:39;;;;;;;8.57;2.78;;;;;;;21.27;61.15;98725.31;5084833;28;20012;-68
2022/08/29 06:24:05;;;;;;;7.90;3.03;;;;;;;21.95;58.61;98733.59;5084778;28;20027;-68
2022/08/29 06:26:30;;;;;;;7.32;2.53;;;;;;;21.92;56.11;98729.28;5084737;28;20032;-68
2022/08/29 06:28:56;;;;;;;10.70;3.05;;;;;;;22.15;54.38;98741.25;5084677;28;20032;-68
2022/08/29 06:31:27;;;;;;;11.85;3.15;;;;;;;22.88;56.10;98748.91;5084624;28;20035;-68
2022/08/29 06:33:58;;;;;;;12.07;2.80;;;;;;;23.04;53.99;98753.09;5084864;28;20373;-68
2022/08/29 06:36:25;;;;;;;9.10;3.17;;;;;;;23.05;52.56;98749.50;5084596;28;20047;-68
2022/08/29 06:38:53;;;;;;;11.18;3.25;;;;;;;23.23;53.50;98747.41;5084564;28;20028;-68
2022/08/29 06:41:18;;;;;;;10.77;3.22;;;;;;;22.83;52.42;98734.91;5084483;28;20020;-68
2022/08/29 06:43:44;;;;;;;18.05;3.47;;;;;;;23.10;52.46;98754.53;5084482;28;20142;-68
2022/08/29 06:46:30;;;;;;;7.50;2.80;;;;;;;23.24;51.47;98741.06;5084376;28;20031;-68
2022/08/29 06:48:57;;;;;;;8.38;3.25;;;;;;;23.53;51.63;98742.59;5084352;28;20021;-68
2022/08/29 06:51:24;;;;;;;8.68;3.30;;;;;;;24.74;50.04;98757.03;5084314;28;20024;-68
2022/08/29 06:53:50;;;;;;;13.52;3.13;;;;;;;24.52;47.71;98748.81;5084338;28;20088;-68
2022/08/29 06:56:16;;;;;;;19.38;3.03;;;;;;;24.12;48.49;98747.31;5084253;28;20020;-68
2022/08/29 06:58:42;;;;;;;12.65;3.05;;;;;;;23.98;49.57;98751.97;5084295;28;20051;-68
2022/08/29 07:01:13;;;;;;;12.40;2.97;;;;;;;24.80;48.39;98759.28;5084411;28;20017;-68
2022/08/29 07:03:40;;;;;;;;;;;;;;;24.16;47.92;98747.94;5084861;28;20308;-68
2022/08/29 07:06:06;;;;;;;9.88;2.72;;;;;;;25.18;48.41;98759.94;5084406;28;19904;-68
2022/08/29 07:08:33;;;;;;;11.70;3.03;;;;;;;25.89;46.57;98764.28;5084232;28;20088;-68
2022/08/29 07:10:59;;;;;;;11.50;3.25;;;;;;;26.09;44.27;98758.19;5084013;28;20096;-68
2022/08/29 07:13:24;;;;;;;11.63;3.17;;;;;;;26.99;44.39;98769.63;5084336;28;20020;-68
2022/08/29 07:15:50;;;;;;;17.42;3.25;;;;;;;27.39;42.33;98757.16;5084099;28;20021;-68
2022/08/29 07:18:15;;;;;;;13.68;3.40;;;;;;;26.91;43.24;98762.16;5084056;28;20062;-68
2022/08/29 07:20:40;;;;;;;14.93;3.50;;;;;;;26.52;42.47;98760.03;5084231;28;20017;-68
2022/08/29 07:23:07;;;;;;;13.40;3.25;;;;;;;25.61;44.89;98756.66;5083986;28;20216;-68
2022/08/29 07:25:32;;;;;;;12.13;3.47;;;;;;;25.77;45.42;98751.78;5083459;28;20298;-68
2022/08/29 07:27:58;;;;;;;15.45;3.20;;;;;;;26.08;45.62;98759.19;5083936;28;20028;-68
2022/08/29 07:30:23;;;;;;;8.82;2.88;;;;;;;24.72;46.57;98750.06;5083796;28;20023;-68
2022/08/29 07:32:49;;;;;;;15.05;3.67;;;;;;;24.89;47.10;98745.13;5083877;28;20279;-68
2022/08/29 07:35:15;;;;;;;12.77;3.13;;;;;;;25.27;47.06;98761.94;5083853;28;20047;-68
2022/08/29 07:37:41;;;;;;;13.00;4.18;;;;;;;25.91;46.66;98754.25;5083808;28;20277;-68
2022/08/29 07:40:09;;;;;;;13.45;2.78;;;;;;;25.87;45.55;98744.66;5083786;28;20016;-68
2022/08/29 07:42:36;;;;;;;10.38;2.85;;;;;;;26.57;44.75;98756.91;5083759;28;20087;-68
2022/08/29 07:45:03;;;;;;;8.93;3.00;;;;;;;26.87;43.87;98757.13;5083785;28;20426;-68
2022/08/29 07:47:28;;;;;;;7.25;2.80;;;;;;;26.77;44.64;98746.22;5083974;28;20338;-68
2022/08/29 07:49:53;;;;;;;12.68;4.10;;;;;;;26.59;43.60;98739.63;5083653;28;20036;-68
2022/08/29 07:52:19;;;;;;;12.65;3.13;;;;;;;26.79;43.70;98743.38;5083663;28;20104;-68
2022/08/29 07:54:45;;;;;;;14.15;3.13;;;;;;;25.46;45.38;98722.81;5083725;28;20025;-68
2022/08/29 07:57:10;;;;;;;10.57;3.20;;;;;;;26.13;45.95;98740.81;5084107;28;20025;-68
2022/08/29 07:59:35;;;;;;;10.82;3.00;;;;;;;27.65;42.63;98753.06;5083565;28;20091;-68
2022/08/29 08:02:02;;;;;;;12.80;3.50;;;;;;;28.52;41.33;98756.13;5083567;28;20024;-68
2022/08/29 08:04:28;;;;;;;13.70;3.28;;;;;;;28.11;41.03;98745.41;5083525;28;20025;-68
2022/08/29 08:06:54;;;;;;;11.52;3.15;;;;;;;27.39;43.34;98750.94;5083520;28;20031;-68
2022/08/29 08:09:19;;;;;;;11.23;3.45;;;;;;;27.28;42.57;98754.53;5083415;28;20235;-68
2022/08/29 08:11:45;;;;;;;16.65;3.72;;;;;;;27.92;42.89;98760.66;5083694;28;20020;-68
2022/08/29 08:14:10;;;;;;;9.98;3.17;;;;;;;28.95;40.71;98769.34;5083558;28;20020;-68
2022/08/29 08:16:36;;;;;;;10.40;3.10;;;;;;;29.90;39.55;98773.91;5083481;28;20030;-68
2022/08/29 08:19:02;;;;;;;12.50;3.83;;;;;;;29.08;39.90;98759.94;5083712;28;20312;-68
2022/08/29 08:21:27;;;;;;;13.52;3.28;;;;;;;29.64;39.97;98767.38;5083452;28;20021;-68
2022/08/29 08:23:53;;;;;;;9.52;3.05;;;;;;;28.60;41.36;98769.81;5083416;28;20020;-68
2022/08/29 08:26:19;;;;;;;9.55;3.28;;;;;;;29.39;40.16;98767.94;5083589;28;20020;-68
2022/08/29 08:28:45;;;;;;;12.90;3.47;;;;;;;29.19;38.57;98767.94;5083411;28;20028;-68
2022/08/29 08:31:12;;;;;;;17.90;3.85;;;;;;;28.88;39.38;98769.03;5083399;28;20388;-68
2022/08/29 08:33:38;;;;;;;11.88;3.80;;;;;;;29.90;38.40;98776.63;5083333;28;20091;-68
2022/08/29 08:36:16;;;;;;;11.10;3.70;;;;;;;28.87;40.01;98775.44;5083778;28;20353;-68
2022/08/29 08:38:42;;;;;;;12.80;4.18;;;;;;;28.53;39.86;98774.06;5086817;28;20024;-68
2022/08/29 08:41:16;;;;;;;8.63;3.28;;;;;;;28.18;42.26;98773.63;5086807;28;20373;-68
2022/08/29 08:43:52;;;;;;;10.02;3.33;;;;;;;29.52;39.99;98787.50;5086870;28;20021;-68
2022/08/29 08:46:27;;;;;;;10.23;3.50;;;;;;;29.69;39.12;98781.34;5086747;28;20338;-68
2022/08/29 08:48:55;;;;;;;8.70;2.80;;;;;;;29.10;39.18;98785.06;5086697;28;20026;-68
2022/08/29 08:51:26;;;;;;;12.63;3.47;;;;;;;30.19;38.40;98785.56;5086735;28;20069;-68
2022/08/29 08:53:55;;;;;;;13.67;4.47;;;;;;;29.91;37.79;98781.03;5086612;28;20070;-68
2022/08/29 08:56:36;;;;;;;11.95;4.00;;;;;;;29.87;38.20;98779.63;5086533;28;20025;-68
2022/08/29 08:59:23;;;;;;;12.55;3.72;;;;;;;30.60;37.84;98790.53;5086495;28;20296;-68
2022/08/29 09:02:16;;;;;;;9.02;3.63;;;;;;;31.05;37.75;98791.44;5086433;28;20020;-68
2022/08/29 09:04:50;;;;;;;8.63;3.33;;;;;;;31.10;37.34;98797.28;5086370;28;20020;-68
2022/08/29 09:07:55;;;;;;;12.23;3.90;;;;;;;30.94;37.04;98783.50;5086372;28;20031;-69
2022/08/29 09:10:44;;;;;;;13.10;3.95;;;;;;;30.79;37.62;98790.47;5086098;28;20046;-69
2022/08/29 09:13:28;;;;;;;17.00;3.83;;;;;;;30.38;37.77;98790.91;5086443;28;20134;-69
2022/08/29 09:15:57;;;;;;;8.48;3.35;;;;;;;29.52;38.00;98779.34;5086157;28;20024;-69
2022/08/29 09:18:36;;;;;;;9.18;4.05;;;;;;;29.42;38.54;98789.38;5086352;28;20058;-69
2022/08/29 09:21:05;;;;;;;12.38;4.35;;;;;;;29.91;37.99;98781.03;5086070;28;20308;-69
2022/08/29 09:23:43;;;;;;;15.18;4.05;;;;;;;28.53;39.36;98771.38;5086031;28;20021;-69
2022/08/29 09:26:10;;;;;;;15.80;4.63;;;;;;;27.94;40.98;98786.63;5085968;28;20330;-69
2022/08/29 09:28:35;;;;;;;12.25;5.00;;;;;;;28.18;40.90;98779.03;5086118;28;20239;-69
2022/08/29 09:31:19;;;;;;;16.75;5.10;;;;;;;28.65;39.95;98783.81;5085768;28;20016;-69
2022/08/29 09:33:52;;;;;;;13.60;4.72;;;;;;;28.52;40.38;98783.22;5085739;28;20043;-69
2022/08/29 09:36:38;;;;;;;11.23;4.47;;;;;;;29.65;38.48;98785.38;5085731;28;20024;-69
2022/08/29 09:39:26;;;;;;;9.75;4.18;;;;;;;29.39;38.42;98789.66;5085678;28;20327;-69
2022/08/29 09:42:15;;;;;;;16.02;4.32;;;;;;;29.98;38.58;98788.44;5085573;28;20055;-69
2022/08/29 09:44:52;;;;;;;11.30;4.30;;;;;;;30.31;37.42;98784.38;5085534;28;20025;-69
2022/08/29 09:47:20;;;;;;;14.45;4.85;;;;;;;29.73;37.87;98782.81;5085120;28;20092;-69
2022/08/29 09:50:19;;;;;;;21.73;4.45;;;;;;;28.88;39.74;98784.41;5085401;28;20320;-69
2022/08/29 09:52:57;;;;;;;12.52;4.55;;;;;;;28.67;39.86;98773.69;5081787;28;20393;-69
2022/08/29 09:55:35;;;;;;;9.75;4.70;;;;;;;29.31;39.41;98775.94;5085332;28;20047;-69
2022/08/29 09:58:25;;;;;;;11.00;4.47;;;;;;;30.45;37.64;98781.16;5085212;28;20052;-69
2022/08/29 10:00:59;;;;;;;14.98;4.25;;;;;;;30.74;36.92;98768.31;5085423;28;20019;-69
2022/08/29 10:03:26;;;;;;;11.15;4.35;;;;;;;30.84;36.52;98767.25;5085128;28;20033;-69
2022/08/29 10:06:06;;;;;;;11.13;4.38;;;;;;;30.86;36.22;98764.38;5085139;28;20227;-69
2022/08/29 10:08:35;;;;;;;14.50;4.30;;;;;;;30.41;36.54;98758.88;5085211;28;20020;-69
2022/08/29 10:11:25;;;;;;;14.05;4.45;;;;;;;30.18;37.20;98756.69;5085165;28;20350;-69
2022/08/29 10:14:02;;;;;;;11.75;4.93;;;;;;;29.15;38.78;98743.97;5074359;28;20044;-69
2022/08/29 10:16:39;;;;;;;15.07;4.97;;;;;;;29.31;38.66;98732.53;5084882;28;20020;-69
2022/08/29 10:19:26;;;;;;;14.10;4.70;;;;;;;29.73;38.78;98742.09;5084899;28;20028;-69
2022/08/29 10:22:04;;;;;;;11.65;4.90;;;;;;;30.28;38.21;98750.19;5084773;28;20020;-69
2022/08/29 10:24:56;;;;;;;15.95;4.50;;;;;;;29.92;37.58;98739.31;5084862;28;20216;-69
2022/08/29 10:27:50;;;;;;;13.18;4.25;;;;;;;30.10;38.06;98741.13;5083569;28;20032;-69
2022/08/29 10:30:38;;;;;;;8.55;4.10;;;;;;;29.74;37.65;98736.50;5084879;28;20036;-69
2022/08/29 10:33:18;;;;;;;10.68;4.50;;;;;;;29.64;38.18;98745.69;5084554;28;20054;-69
2022/08/29 10:36:21;;;;;;;12.32;4.68;;;;;;;29.89;38.40;98740.47;5084655;28;20320;-69
2022/08/29 10:38:49;;;;;;;11.85;4.50;;;;;;;30.48;37.58;98745.53;5084510;28;20244;-69
2022/08/29 10:41:38;;;;;;;12.77;4.55;;;;;;;30.27;37.41;98739.47;5084428;28;20023;-69
2022/08/29 10:44:07;;;;;;;17.52;5.05;;;;;;;30.23;38.61;98732.66;5084483;28;20024;-69
2022/08/29 10:46:35;;;;;;;16.25;5.28;;;;;;;29.78;37.93;98727.09;5084455;28;20047;-69
2022/08/29 10:49:15;;;;;;;12.90;4.65;;;;;;;30.18;37.95;98729.53;5084352;28;20029;-69
2022/08/29 10:52:05;;;;;;;13.27;5.07;;;;;;;30.21;38.55;98731.97;5084502;28;20024;-69
2022/08/29 10:55:00;;;;;;;10.15;4.72;;;;;;;30.30;37.94;98728.31;5084328;28;20260;-69
2022/08/29 10:57:52;;;;;;;14.10;4.53;;;;;;;31.01;37.55;98730.22;5081158;28;20036;-69
2022/08/29 11:00:27;;;;;;;11.55;4.43;;;;;;;31.10;37.76;98734.72;5083506;28;20228;-69
2022/08/29 11:03:09;;;;;;;13.30;4.20;;;;;;;30.11;37.65;98717.50;5084126;28;20035;-69
2022/08/29 11:05:44;;;;;;;11.60;5.38;;;;;;;30.09;37.73;98714.13;5084411;28;20316;-69
2022/08/29 11:08:28;;;;;;;11.20;4.50;;;;;;;29.18;39.22;98708.44;5084124;28;20027;-69
2022/08/29 11:10:53;;;;;;;10.00;4.18;;;;;;;30.24;39.28;98723.53;5084090;28;20043;-69
2022/08/29 11:13:25;;;;;;;15.43;4.75;;;;;;;30.46;38.84;98712.22;5084084;28;20017;-69
2022/08/29 11:15:56;;;;;;;10.68;4.50;;;;;;;29.43;38.99;98704.28;5084083;28;20025;-69
2022/08/29 11:18:37;;;;;;;16.15;5.00;;;;;;;29.59;39.38;98699.09;5084069;28;20020;-69
2022/08/29 11:21:12;;;;;;;13.43;4.60;;;;;;;29.45;38.95;98710.41;5084021;28;20040;-69
2022/08/29 11:23:43;;;;;;;15.02;4.80;;;;;;;29.52;39.27;98693.44;5083954;28;20083;-69
2022/08/29 11:26:38;;;;;;;10.70;4.30;;;;;;;30.30;38.32;98703.88;5084196;28;20300;-69
2022/08/29 11:29:21;;;;;;;12.85;4.65;;;;;;;30.03;39.13;98693.00;5083846;28;20025;-69
2022/08/29 11:31:46;;;;;;;14.05;4.47;;;;;;;30.14;38.50;98692.78;5084059;28;20035;-69
2022/08/29 11:34:44;;;;;;;11.35;4.90;;;;;;;29.38;39.49;98665.91;5083910;28;20016;-69
2022/08/29 11:37:52;;;;;;;14.82;5.30;;;;;;;28.60;40.20;98683.13;5084096;28;20020;-69
2022/08/29 11:40:36;;;;;;;13.38;4.72;;;;;;;28.41;40.84;98683.06;5063314;28;20232;-69
2022/08/29 11:43:04;;;;;;;14.80;4.85;;;;;;;28.39;41.34;98676.97;5083736;28;20031;-69